createdAt,value
2016-04-28T00:00:50.012Z,1002.74
2016-04-28T00:01:49.983Z,1002.73
2016-04-28T00:02:49.954Z,1002.7
2016-04-28T00:03:49.927Z,1002.74
2016-04-28T00:04:49.898Z,1002.76
2016-04-28T00:05:49.869Z,1002.73
2016-04-28T00:06:49.840Z,1002.77
2016-04-28T00:07:49.813Z,1002.72
2016-04-28T00:08:49.783Z,1002.73
2016-04-28T00:09:49.754Z,1002.73
2016-04-28T00:10:49.710Z,1002.78
2016-04-28T00:11:49.698Z,1002.76
2016-04-28T00:12:49.654Z,1002.79
2016-04-28T00:13:49.626Z,1002.78
2016-04-28T00:14:49.596Z,1002.77
2016-04-28T00:15:49.567Z,1002.81
2016-04-28T00:16:49.540Z,1002.83
2016-04-28T00:17:49.511Z,1002.87
2016-04-28T00:18:49.482Z,1002.82
2016-04-28T00:19:49.453Z,1002.88
2016-04-28T00:20:49.425Z,1002.87
2016-04-28T00:21:49.381Z,1002.88
2016-04-28T00:22:49.353Z,1002.83
2016-04-28T00:23:49.323Z,1002.89
2016-04-28T00:24:49.295Z,1002.86
2016-04-28T00:25:49.267Z,1002.89
2016-04-28T00:26:49.817Z,1002.85
2016-04-28T00:27:49.209Z,1002.88
2016-04-28T00:28:49.180Z,1002.88
2016-04-28T00:29:49.153Z,1002.88
2016-04-28T00:30:49.124Z,1002.89
2016-04-28T00:31:49.080Z,1002.87
2016-04-28T00:32:49.051Z,1002.88
2016-04-28T00:33:49.038Z,1002.88
2016-04-28T00:34:48.994Z,1002.91
2016-04-28T00:35:48.965Z,1002.9
2016-04-28T00:36:48.937Z,1002.88
2016-04-28T00:37:48.908Z,1002.92
2016-04-28T00:38:48.880Z,1002.91
2016-04-28T00:39:48.835Z,1002.93
2016-04-28T00:40:48.807Z,1002.92
2016-04-28T00:41:48.778Z,1002.95
2016-04-28T00:42:48.750Z,1002.95
2016-04-28T00:43:48.721Z,1002.94
2016-04-28T00:44:48.693Z,1002.97
2016-04-28T00:45:48.664Z,1002.96
2016-04-28T00:46:48.635Z,1002.99
2016-04-28T00:47:48.592Z,1002.97
2016-04-28T00:48:48.562Z,1002.97
2016-04-28T00:49:48.534Z,1002.97
2016-04-28T00:50:48.506Z,1002.96
2016-04-28T00:51:48.478Z,1002.99
2016-04-28T00:52:48.448Z,1002.97
2016-04-28T00:53:48.420Z,1002.98
2016-04-28T00:54:48.392Z,1003.03
2016-04-28T00:55:48.800Z,1003.05
2016-04-28T00:56:48.319Z,1003.06
2016-04-28T00:57:48.290Z,1003.06
2016-04-28T00:58:48.261Z,1003.06
2016-04-28T00:59:48.233Z,1003.09
2016-04-28T01:00:48.205Z,1003.08
2016-04-28T01:01:48.175Z,1003.08
2016-04-28T01:02:48.132Z,1003.09
2016-04-28T01:03:48.119Z,1003.13
2016-04-28T01:04:48.075Z,1003.1
2016-04-28T01:05:48.046Z,1003.1
2016-04-28T01:06:48.018Z,1003.15
2016-04-28T01:07:47.988Z,1003.11
2016-04-28T01:08:47.944Z,1003.15
2016-04-28T01:09:47.932Z,1003.13
2016-04-28T01:10:48.434Z,1003.14
2016-04-28T01:11:47.874Z,1003.11
2016-04-28T01:12:47.830Z,1003.13
2016-04-28T01:13:47.802Z,1003.14
2016-04-28T01:14:47.773Z,1003.12
2016-04-28T01:15:47.745Z,1003.12
2016-04-28T01:16:47.716Z,1003.15
2016-04-28T01:17:47.673Z,1003.14
2016-04-28T01:18:47.643Z,1003.12
2016-04-28T01:19:47.615Z,1003.09
2016-04-28T01:20:47.586Z,1003.13
2016-04-28T01:21:47.558Z,1003.12
2016-04-28T01:22:47.529Z,1003.1
2016-04-28T01:23:47.500Z,1003.07
2016-04-28T01:24:47.472Z,1003.08
2016-04-28T01:25:48.209Z,1003.13
2016-04-28T01:26:47.806Z,1003.1
2016-04-28T01:27:47.370Z,1003.14
2016-04-28T01:28:47.342Z,1003.18
2016-04-28T01:29:47.314Z,1003.2
2016-04-28T01:30:47.286Z,1003.18
2016-04-28T01:31:47.241Z,1003.18
2016-04-28T01:32:47.212Z,1003.19
2016-04-28T01:33:47.183Z,1003.26
2016-04-28T01:34:47.155Z,1003.27
2016-04-28T01:35:47.127Z,1003.26
2016-04-28T01:36:47.098Z,1003.23
2016-04-28T01:37:47.070Z,1003.24
2016-04-28T01:38:47.041Z,1003.21
2016-04-28T01:39:47.013Z,1003.31
2016-04-28T01:40:46.968Z,1003.26
2016-04-28T01:41:46.940Z,1003.28
2016-04-28T01:42:46.911Z,1003.31
2016-04-28T01:43:46.883Z,1003.29
2016-04-28T01:44:46.854Z,1003.31
2016-04-28T01:45:46.825Z,1003.32
2016-04-28T01:46:46.797Z,1003.37
2016-04-28T01:47:46.753Z,1003.36
2016-04-28T01:48:46.724Z,1003.34
2016-04-28T01:49:46.695Z,1003.35
2016-04-28T01:50:46.668Z,1003.28
2016-04-28T01:51:46.639Z,1003.34
2016-04-28T01:52:46.625Z,1003.36
2016-04-28T01:53:46.582Z,1003.35
2016-04-28T01:54:46.553Z,1003.35
2016-04-28T01:55:46.868Z,1003.38
2016-04-28T01:56:46.620Z,1003.38
2016-04-28T01:57:46.451Z,1003.32
2016-04-28T01:58:46.438Z,1003.34
2016-04-28T01:59:46.395Z,1003.34
2016-04-28T02:00:46.366Z,1003.38
2016-04-28T02:01:46.336Z,1003.4
2016-04-28T02:02:46.309Z,1003.4
2016-04-28T02:03:46.280Z,1003.38
2016-04-28T02:04:46.252Z,1003.4
2016-04-28T02:05:46.222Z,1003.37
2016-04-28T02:06:46.179Z,1003.43
2016-04-28T02:07:46.150Z,1003.39
2016-04-28T02:08:46.122Z,1003.41
2016-04-28T02:09:46.093Z,1003.39
2016-04-28T02:10:46.065Z,1003.42
2016-04-28T02:11:46.036Z,1003.41
2016-04-28T02:12:46.007Z,1003.41
2016-04-28T02:13:45.979Z,1003.39
2016-04-28T02:14:45.934Z,1003.43
2016-04-28T02:15:45.907Z,1003.39
2016-04-28T02:16:45.877Z,1003.39
2016-04-28T02:17:45.849Z,1003.39
2016-04-28T02:18:45.821Z,1003.4
2016-04-28T02:19:45.792Z,1003.42
2016-04-28T02:20:45.763Z,1003.43
2016-04-28T02:21:45.734Z,1003.4
2016-04-28T02:22:45.696Z,1003.43
2016-04-28T02:23:45.668Z,1003.44
2016-04-28T02:24:45.640Z,1003.43
2016-04-28T02:25:45.610Z,1003.42
2016-04-28T02:26:45.582Z,1003.48
2016-04-28T02:27:45.553Z,1003.44
2016-04-28T02:28:45.526Z,1003.43
2016-04-28T02:29:45.496Z,1003.42
2016-04-28T02:30:45.468Z,1003.48
2016-04-28T02:31:45.439Z,1003.48
2016-04-28T02:32:45.395Z,1003.49
2016-04-28T02:33:45.367Z,1003.47
2016-04-28T02:34:45.338Z,1003.45
2016-04-28T02:35:45.310Z,1003.53
2016-04-28T02:36:45.281Z,1003.52
2016-04-28T02:37:45.253Z,1003.52
2016-04-28T02:38:45.239Z,1003.51
2016-04-28T02:39:45.194Z,1003.55
2016-04-28T02:40:45.151Z,1003.53
2016-04-28T02:41:45.123Z,1003.55
2016-04-28T02:42:45.094Z,1003.54
2016-04-28T02:43:45.065Z,1003.52
2016-04-28T02:44:45.037Z,1003.52
2016-04-28T02:45:45.008Z,1003.55
2016-04-28T02:46:44.980Z,1003.55
2016-04-28T02:47:44.951Z,1003.56
2016-04-28T02:48:44.923Z,1003.5
2016-04-28T02:49:44.894Z,1003.56
2016-04-28T02:50:44.865Z,1003.54
2016-04-28T02:51:44.821Z,1003.54
2016-04-28T02:52:44.792Z,1003.58
2016-04-28T02:53:44.765Z,1003.6
2016-04-28T02:54:44.735Z,1003.54
2016-04-28T02:55:44.707Z,1003.55
2016-04-28T02:56:44.679Z,1003.57
2016-04-28T02:57:44.650Z,1003.58
2016-04-28T02:58:44.621Z,1003.6
2016-04-28T02:59:44.576Z,1003.54
2016-04-28T03:00:44.549Z,1003.59
2016-04-28T03:01:44.536Z,1003.6
2016-04-28T03:02:44.492Z,1003.61
2016-04-28T03:03:44.462Z,1003.58
2016-04-28T03:04:44.450Z,1003.57
2016-04-28T03:05:44.406Z,1003.62
2016-04-28T03:06:44.377Z,1003.62
2016-04-28T03:07:44.348Z,1003.62
2016-04-28T03:08:44.320Z,1003.6
2016-04-28T03:09:44.276Z,1003.67
2016-04-28T03:10:44.247Z,1003.65
2016-04-28T03:11:44.219Z,1003.68
2016-04-28T03:12:44.191Z,1003.68
2016-04-28T03:13:44.161Z,1003.72
2016-04-28T03:14:44.133Z,1003.73
2016-04-28T03:15:44.105Z,1003.73
2016-04-28T03:16:44.060Z,1003.72
2016-04-28T03:17:44.032Z,1003.77
2016-04-28T03:18:44.003Z,1003.71
2016-04-28T03:19:43.974Z,1003.76
2016-04-28T03:20:43.946Z,1003.71
2016-04-28T03:21:43.918Z,1003.72
2016-04-28T03:22:43.889Z,1003.73
2016-04-28T03:23:43.860Z,1003.75
2016-04-28T03:24:43.816Z,1003.74
2016-04-28T03:25:43.788Z,1003.77
2016-04-28T03:26:44.259Z,1003.78
2016-04-28T03:27:43.731Z,1003.75
2016-04-28T03:28:43.701Z,1003.72
2016-04-28T03:29:43.674Z,1003.75
2016-04-28T03:30:43.645Z,1003.75
2016-04-28T03:31:43.617Z,1003.78
2016-04-28T03:32:43.572Z,1003.8
2016-04-28T03:33:43.543Z,1003.83
2016-04-28T03:34:43.515Z,1003.82
2016-04-28T03:35:43.486Z,1003.84
2016-04-28T03:36:43.458Z,1003.85
2016-04-28T03:37:43.429Z,1003.84
2016-04-28T03:38:43.401Z,1003.85
2016-04-28T03:39:43.356Z,1003.87
2016-04-28T03:40:43.327Z,1003.89
2016-04-28T03:41:43.300Z,1003.89
2016-04-28T03:42:43.271Z,1003.93
2016-04-28T03:43:43.242Z,1003.93
2016-04-28T03:44:43.213Z,1003.94
2016-04-28T03:45:43.186Z,1003.93
2016-04-28T03:46:43.157Z,1003.97
2016-04-28T03:47:43.112Z,1003.94
2016-04-28T03:48:43.084Z,1003.97
2016-04-28T03:49:43.055Z,1003.95
2016-04-28T03:50:43.043Z,1003.97
2016-04-28T03:51:42.998Z,1003.95
2016-04-28T03:52:42.969Z,1003.97
2016-04-28T03:53:42.926Z,1003.95
2016-04-28T03:54:42.896Z,1003.92
2016-04-28T03:55:42.868Z,1003.92
2016-04-28T03:56:44.574Z,1003.95
2016-04-28T03:57:42.812Z,1003.99
2016-04-28T03:58:42.782Z,1004.01
2016-04-28T03:59:42.754Z,1003.97
2016-04-28T04:00:42.710Z,1003.96
2016-04-28T04:01:42.698Z,1003.98
2016-04-28T04:02:42.668Z,1004
2016-04-28T04:03:42.624Z,1004.02
2016-04-28T04:04:42.596Z,1003.96
2016-04-28T04:05:42.567Z,1004
2016-04-28T04:06:42.539Z,1004
2016-04-28T04:07:42.494Z,1003.98
2016-04-28T04:08:42.466Z,1003.99
2016-04-28T04:09:42.437Z,1004.03
2016-04-28T04:10:42.409Z,1004
2016-04-28T04:11:42.380Z,1003.99
2016-04-28T04:12:42.352Z,1004
2016-04-28T04:13:42.323Z,1003.97
2016-04-28T04:14:42.294Z,1003.98
2016-04-28T04:15:42.266Z,1003.99
2016-04-28T04:16:42.222Z,1004.04
2016-04-28T04:17:42.194Z,1004.08
2016-04-28T04:18:42.164Z,1004.03
2016-04-28T04:19:42.135Z,1004.1
2016-04-28T04:20:42.108Z,1004.08
2016-04-28T04:21:42.079Z,1004.08
2016-04-28T04:22:42.035Z,1004.11
2016-04-28T04:23:42.006Z,1004.08
2016-04-28T04:24:41.978Z,1004.14
2016-04-28T04:25:41.965Z,1004.15
2016-04-28T04:26:41.921Z,1004.18
2016-04-28T04:27:41.892Z,1004.17
2016-04-28T04:28:41.863Z,1004.2
2016-04-28T04:29:41.835Z,1004.2
2016-04-28T04:30:41.790Z,1004.19
2016-04-28T04:31:41.762Z,1004.21
2016-04-28T04:32:41.734Z,1004.17
2016-04-28T04:33:41.704Z,1004.23
2016-04-28T04:34:41.676Z,1004.24
2016-04-28T04:35:41.647Z,1004.24
2016-04-28T04:36:41.620Z,1004.23
2016-04-28T04:37:41.575Z,1004.26
2016-04-28T04:38:41.547Z,1004.29
2016-04-28T04:39:41.518Z,1004.3
2016-04-28T04:40:41.505Z,1004.28
2016-04-28T04:41:41.476Z,1004.34
2016-04-28T04:42:41.432Z,1004.32
2016-04-28T04:43:41.419Z,1004.32
2016-04-28T04:44:41.359Z,1004.32
2016-04-28T04:45:41.347Z,1004.32
2016-04-28T04:46:41.302Z,1004.34
2016-04-28T04:47:41.274Z,1004.32
2016-04-28T04:48:41.245Z,1004.35
2016-04-28T04:49:41.216Z,1004.34
2016-04-28T04:50:41.188Z,1004.38
2016-04-28T04:51:41.160Z,1004.38
2016-04-28T04:52:41.116Z,1004.37
2016-04-28T04:53:41.087Z,1004.42
2016-04-28T04:54:41.058Z,1004.41
2016-04-28T04:55:41.030Z,1004.41
2016-04-28T04:56:41.110Z,1004.45
2016-04-28T04:57:40.973Z,1004.45
2016-04-28T04:58:40.943Z,1004.48
2016-04-28T04:59:40.900Z,1004.48
2016-04-28T05:00:40.887Z,1004.5
2016-04-28T05:01:40.843Z,1004.54
2016-04-28T05:02:40.814Z,1004.51
2016-04-28T05:03:40.785Z,1004.52
2016-04-28T05:04:40.757Z,1004.56
2016-04-28T05:05:40.728Z,1004.61
2016-04-28T05:06:40.700Z,1004.61
2016-04-28T05:07:40.656Z,1004.62
2016-04-28T05:08:40.628Z,1004.64
2016-04-28T05:09:40.598Z,1004.66
2016-04-28T05:10:40.569Z,1004.66
2016-04-28T05:11:40.541Z,1004.71
2016-04-28T05:12:40.514Z,1004.71
2016-04-28T05:13:40.484Z,1004.71
2016-04-28T05:14:40.455Z,1004.76
2016-04-28T05:15:40.428Z,1004.73
2016-04-28T05:16:40.399Z,1004.74
2016-04-28T05:17:40.355Z,1004.76
2016-04-28T05:18:40.325Z,1004.73
2016-04-28T05:19:40.298Z,1004.74
2016-04-28T05:20:40.268Z,1004.79
2016-04-28T05:21:40.241Z,1004.73
2016-04-28T05:22:40.211Z,1004.78
2016-04-28T05:23:40.182Z,1004.78
2016-04-28T05:24:40.154Z,1004.76
2016-04-28T05:25:40.127Z,1004.78
2016-04-28T05:26:40.097Z,1004.78
2016-04-28T05:27:40.053Z,1004.82
2016-04-28T05:28:40.025Z,1004.88
2016-04-28T05:29:39.996Z,1004.83
2016-04-28T05:30:39.968Z,1004.87
2016-04-28T05:31:39.939Z,1004.87
2016-04-28T05:32:39.911Z,1004.94
2016-04-28T05:33:39.881Z,1004.9
2016-04-28T05:34:39.854Z,1004.94
2016-04-28T05:35:39.825Z,1004.94
2016-04-28T05:36:39.795Z,1004.95
2016-04-28T05:37:39.767Z,1004.95
2016-04-28T05:38:39.740Z,1004.96
2016-04-28T05:39:39.695Z,1004.94
2016-04-28T05:40:39.666Z,1004.96
2016-04-28T05:41:39.637Z,1004.9
2016-04-28T05:42:39.609Z,1004.92
2016-04-28T05:43:39.581Z,1004.97
2016-04-28T05:44:39.553Z,1004.98
2016-04-28T05:45:39.523Z,1005.01
2016-04-28T05:46:39.494Z,1005.01
2016-04-28T05:47:39.467Z,1005.02
2016-04-28T05:48:39.438Z,1005.09
2016-04-28T05:49:39.409Z,1005.08
2016-04-28T05:50:39.380Z,1005.11
2016-04-28T05:51:39.353Z,1005.13
2016-04-28T05:52:39.324Z,1005.14
2016-04-28T05:53:39.295Z,1005.13
2016-04-28T05:54:39.251Z,1005.2
2016-04-28T05:55:39.222Z,1005.22
2016-04-28T05:56:39.241Z,1005.22
2016-04-28T05:57:39.165Z,1005.21
2016-04-28T05:58:39.137Z,1005.18
2016-04-28T05:59:39.108Z,1005.18
2016-04-28T06:00:39.085Z,1005.2
2016-04-28T06:01:39.098Z,1005.2
2016-04-28T06:02:39.110Z,1005.22
2016-04-28T06:03:39.121Z,1005.22
2016-04-28T06:04:39.134Z,1005.25
2016-04-28T06:05:39.142Z,1005.26
2016-04-28T06:06:39.128Z,1005.27
2016-04-28T06:07:39.114Z,1005.26
2016-04-28T06:08:39.101Z,1005.22
2016-04-28T06:09:39.086Z,1005.22
2016-04-28T06:10:39.072Z,1005.23
2016-04-28T06:11:39.157Z,1005.24
2016-04-28T06:12:39.024Z,1005.23
2016-04-28T06:13:39.000Z,1005.22
2016-04-28T06:14:38.978Z,1005.27
2016-04-28T06:15:38.952Z,1005.25
2016-04-28T06:16:38.926Z,1005.3
2016-04-28T06:17:38.914Z,1005.25
2016-04-28T06:18:38.873Z,1005.29
2016-04-28T06:19:38.846Z,1005.25
2016-04-28T06:20:38.819Z,1005.26
2016-04-28T06:21:38.792Z,1005.28
2016-04-28T06:22:38.764Z,1005.32
2016-04-28T06:23:38.735Z,1005.34
2016-04-28T06:24:38.708Z,1005.32
2016-04-28T06:25:38.681Z,1005.3
2016-04-28T06:26:39.105Z,1005.3
2016-04-28T06:27:38.624Z,1005.33
2016-04-28T06:28:38.595Z,1005.35
2016-04-28T06:29:38.568Z,1005.32
2016-04-28T06:30:38.537Z,1005.38
2016-04-28T06:31:38.508Z,1005.34
2016-04-28T06:32:38.479Z,1005.4
2016-04-28T06:33:38.452Z,1005.38
2016-04-28T06:34:38.438Z,1005.43
2016-04-28T06:35:38.394Z,1005.43
2016-04-28T06:36:38.366Z,1005.42
2016-04-28T06:37:38.337Z,1005.45
2016-04-28T06:38:38.308Z,1005.45
2016-04-28T06:39:38.279Z,1005.45
2016-04-28T06:40:38.251Z,1005.43
2016-04-28T06:41:38.223Z,1005.44
2016-04-28T06:42:38.209Z,1005.45
2016-04-28T06:43:38.165Z,1005.41
2016-04-28T06:44:38.137Z,1005.46
2016-04-28T06:45:38.108Z,1005.48
2016-04-28T06:46:38.080Z,1005.49
2016-04-28T06:47:38.067Z,1005.45
2016-04-28T06:48:38.023Z,1005.46
2016-04-28T06:49:37.994Z,1005.47
2016-04-28T06:50:37.966Z,1005.5
2016-04-28T06:51:37.936Z,1005.5
2016-04-28T06:52:37.909Z,1005.48
2016-04-28T06:53:37.880Z,1005.5
2016-04-28T06:54:37.867Z,1005.46
2016-04-28T06:55:37.822Z,1005.5
2016-04-28T06:56:37.810Z,1005.48
2016-04-28T06:57:37.766Z,1005.47
2016-04-28T06:58:37.752Z,1005.51
2016-04-28T06:59:37.708Z,1005.53
2016-04-28T07:00:37.773Z,1005.51
2016-04-28T07:01:37.666Z,1005.57
2016-04-28T07:02:37.639Z,1005.57
2016-04-28T07:03:37.610Z,1005.61
2016-04-28T07:04:37.581Z,1005.61
2016-04-28T07:05:37.553Z,1005.61
2016-04-28T07:06:37.524Z,1005.6
2016-04-28T07:07:37.495Z,1005.63
2016-04-28T07:08:37.467Z,1005.63
2016-04-28T07:09:37.438Z,1005.62
2016-04-28T07:10:37.409Z,1005.65
2016-04-28T07:11:37.382Z,1005.71
2016-04-28T07:12:37.368Z,1005.65
2016-04-28T07:13:37.340Z,1005.71
2016-04-28T07:14:37.312Z,1005.68
2016-04-28T07:15:37.283Z,1005.64
2016-04-28T07:16:37.254Z,1005.65
2016-04-28T07:17:37.225Z,1005.71
2016-04-28T07:18:37.197Z,1005.69
2016-04-28T07:19:37.169Z,1005.66
2016-04-28T07:20:37.155Z,1005.72
2016-04-28T07:21:37.127Z,1005.74
2016-04-28T07:22:37.099Z,1005.76
2016-04-28T07:23:37.071Z,1005.81
2016-04-28T07:24:37.059Z,1005.84
2016-04-28T07:25:37.029Z,1005.81
2016-04-28T07:26:37.173Z,1005.82
2016-04-28T07:27:37.535Z,1005.81
2016-04-28T07:28:36.959Z,1005.78
2016-04-28T07:29:36.930Z,1005.78
2016-04-28T07:30:36.917Z,1005.83
2016-04-28T07:31:36.889Z,1005.83
2016-04-28T07:32:36.876Z,1005.86
2016-04-28T07:33:36.848Z,1005.85
2016-04-28T07:34:36.820Z,1005.8
2016-04-28T07:35:36.806Z,1005.86
2016-04-28T07:36:36.778Z,1005.9
2016-04-28T07:37:36.764Z,1005.9
2016-04-28T07:38:36.736Z,1005.9
2016-04-28T07:39:36.723Z,1005.86
2016-04-28T07:40:36.694Z,1005.86
2016-04-28T07:41:36.744Z,1005.89
2016-04-28T07:42:36.653Z,1005.89
2016-04-28T07:43:36.640Z,1005.89
2016-04-28T07:44:36.612Z,1005.9
2016-04-28T07:45:36.583Z,1005.91
2016-04-28T07:46:36.571Z,1005.93
2016-04-28T07:47:36.542Z,1005.95
2016-04-28T07:48:36.529Z,1005.95
2016-04-28T07:49:36.500Z,1005.98
2016-04-28T07:50:36.487Z,1005.95
2016-04-28T07:51:36.459Z,1005.92
2016-04-28T07:52:36.445Z,1005.95
2016-04-28T07:53:36.432Z,1005.98
2016-04-28T07:54:36.404Z,1005.99
2016-04-28T07:55:36.376Z,1006
2016-04-28T07:56:36.348Z,1006.04
2016-04-28T07:57:36.538Z,1006.03
2016-04-28T07:58:39.431Z,1006.02
2016-04-28T07:59:36.293Z,1006.04
2016-04-28T08:00:36.264Z,1006.04
2016-04-28T08:01:36.251Z,1006.04
2016-04-28T08:02:36.223Z,1006.08
2016-04-28T08:03:36.194Z,1006.07
2016-04-28T08:04:36.181Z,1006.09
2016-04-28T08:05:36.152Z,1006.07
2016-04-28T08:06:36.124Z,1006.11
2016-04-28T08:07:36.144Z,1006.11
2016-04-28T08:08:36.079Z,1006.15
2016-04-28T08:09:36.050Z,1006.13
2016-04-28T08:10:36.037Z,1006.16
2016-04-28T08:11:36.009Z,1006.11
2016-04-28T08:12:35.995Z,1006.09
2016-04-28T08:13:38.967Z,1006.09
2016-04-28T08:14:35.953Z,1006.21
2016-04-28T08:15:35.942Z,1006.16
2016-04-28T08:16:35.912Z,1006.14
2016-04-28T08:17:35.900Z,1006.2
2016-04-28T08:18:35.887Z,1006.22
2016-04-28T08:19:35.859Z,1006.18
2016-04-28T08:20:35.845Z,1006.2
2016-04-28T08:21:35.832Z,1006.23
2016-04-28T08:22:35.819Z,1006.27
2016-04-28T08:23:35.806Z,1006.21
2016-04-28T08:24:35.794Z,1006.17
2016-04-28T08:25:35.764Z,1006.22
2016-04-28T08:26:35.752Z,1006.29
2016-04-28T08:27:36.130Z,1006.24
2016-04-28T08:28:37.055Z,1006.3
2016-04-28T08:29:35.730Z,1006.3
2016-04-28T08:30:35.716Z,1006.27
2016-04-28T08:31:35.703Z,1006.21
2016-04-28T08:32:35.690Z,1006.22
2016-04-28T08:33:35.677Z,1006.25
2016-04-28T08:34:35.664Z,1006.22
2016-04-28T08:35:35.651Z,1006.27
2016-04-28T08:36:35.654Z,1006.27
2016-04-28T08:37:35.626Z,1006.27
2016-04-28T08:38:35.612Z,1006.27
2016-04-28T08:39:35.599Z,1006.23
2016-04-28T08:40:35.601Z,1006.22
2016-04-28T08:41:35.574Z,1006.26
2016-04-28T08:42:35.968Z,1006.26
2016-04-28T08:43:35.688Z,1006.3
2016-04-28T08:44:35.551Z,1006.33
2016-04-28T08:45:35.522Z,1006.31
2016-04-28T08:46:35.509Z,1006.28
2016-04-28T08:47:35.496Z,1006.31
2016-04-28T08:48:35.483Z,1006.29
2016-04-28T08:49:35.470Z,1006.27
2016-04-28T08:50:35.457Z,1006.24
2016-04-28T08:51:35.445Z,1006.21
2016-04-28T08:52:35.416Z,1006.3
2016-04-28T08:53:35.403Z,1006.26
2016-04-28T08:54:35.389Z,1006.26
2016-04-28T08:55:35.377Z,1006.25
2016-04-28T08:56:35.348Z,1006.28
2016-04-28T08:57:35.336Z,1006.29
2016-04-28T08:58:35.322Z,1006.2
2016-04-28T08:59:35.294Z,1006.21
2016-04-28T09:00:35.280Z,1006.22
2016-04-28T09:01:35.268Z,1006.21
2016-04-28T09:02:35.239Z,1006.26
2016-04-28T09:03:35.227Z,1006.2
2016-04-28T09:04:35.199Z,1006.21
2016-04-28T09:05:35.185Z,1006.21
2016-04-28T09:06:35.157Z,1006.19
2016-04-28T09:07:35.144Z,1006.17
2016-04-28T09:08:35.130Z,1006.26
2016-04-28T09:09:35.102Z,1006.28
2016-04-28T09:10:35.089Z,1006.19
2016-04-28T09:11:35.060Z,1006.22
2016-04-28T09:12:35.720Z,1006.2
2016-04-28T09:13:35.019Z,1006.24
2016-04-28T09:14:34.991Z,1006.26
2016-04-28T09:15:34.978Z,1006.28
2016-04-28T09:16:34.965Z,1006.3
2016-04-28T09:17:34.936Z,1006.21
2016-04-28T09:18:34.907Z,1006.29
2016-04-28T09:19:34.895Z,1006.27
2016-04-28T09:20:34.866Z,1006.26
2016-04-28T09:21:34.853Z,1006.26
2016-04-28T09:22:34.825Z,1006.3
2016-04-28T09:23:34.795Z,1006.28
2016-04-28T09:24:34.783Z,1006.27
2016-04-28T09:25:34.755Z,1006.28
2016-04-28T09:26:34.742Z,1006.23
2016-04-28T09:27:34.713Z,1006.29
2016-04-28T09:28:34.684Z,1006.29
2016-04-28T09:29:34.671Z,1006.23
2016-04-28T09:30:34.643Z,1006.31
2016-04-28T09:31:34.629Z,1006.23
2016-04-28T09:32:34.601Z,1006.28
2016-04-28T09:33:34.573Z,1006.28
2016-04-28T09:34:34.560Z,1006.26
2016-04-28T09:35:34.531Z,1006.25
2016-04-28T09:36:34.518Z,1006.32
2016-04-28T09:37:34.490Z,1006.28
2016-04-28T09:38:34.461Z,1006.33
2016-04-28T09:39:34.448Z,1006.36
2016-04-28T09:40:34.420Z,1006.26
2016-04-28T09:41:34.406Z,1006.28
2016-04-28T09:42:34.393Z,1006.29
2016-04-28T09:43:34.366Z,1006.25
2016-04-28T09:44:34.337Z,1006.21
2016-04-28T09:45:34.309Z,1006.21
2016-04-28T09:46:34.295Z,1006.23
2016-04-28T09:47:34.267Z,1006.26
2016-04-28T09:48:34.253Z,1006.3
2016-04-28T09:49:34.225Z,1006.26
2016-04-28T09:50:34.197Z,1006.25
2016-04-28T09:51:34.184Z,1006.21
2016-04-28T09:52:34.155Z,1006.23
2016-04-28T09:53:34.142Z,1006.25
2016-04-28T09:54:34.114Z,1006.24
2016-04-28T09:55:34.085Z,1006.32
2016-04-28T09:56:34.072Z,1006.29
2016-04-28T09:57:34.043Z,1006.27
2016-04-28T09:58:34.030Z,1006.3
2016-04-28T09:59:34.002Z,1006.28
2016-04-28T10:00:33.974Z,1006.27
2016-04-28T10:01:33.961Z,1006.28
2016-04-28T10:02:33.932Z,1006.29
2016-04-28T10:03:33.919Z,1006.32
2016-04-28T10:04:33.891Z,1006.35
2016-04-28T10:05:33.877Z,1006.32
2016-04-28T10:06:33.849Z,1006.3
2016-04-28T10:07:33.836Z,1006.25
2016-04-28T10:08:33.808Z,1006.3
2016-04-28T10:09:33.780Z,1006.31
2016-04-28T10:10:33.766Z,1006.27
2016-04-28T10:11:33.738Z,1006.29
2016-04-28T10:12:33.725Z,1006.24
2016-04-28T10:13:33.695Z,1006.25
2016-04-28T10:14:33.667Z,1006.24
2016-04-28T10:15:33.640Z,1006.29
2016-04-28T10:16:33.626Z,1006.28
2016-04-28T10:17:33.597Z,1006.29
2016-04-28T10:18:33.584Z,1006.25
2016-04-28T10:19:33.556Z,1006.25
2016-04-28T10:20:33.527Z,1006.3
2016-04-28T10:21:33.515Z,1006.26
2016-04-28T10:22:33.486Z,1006.3
2016-04-28T10:23:33.457Z,1006.29
2016-04-28T10:24:33.428Z,1006.32
2016-04-28T10:25:33.417Z,1006.32
2016-04-28T10:26:33.387Z,1006.33
2016-04-28T10:27:33.703Z,1006.35
2016-04-28T10:28:33.345Z,1006.37
2016-04-28T10:29:33.317Z,1006.36
2016-04-28T10:30:33.305Z,1006.35
2016-04-28T10:31:33.275Z,1006.4
2016-04-28T10:32:33.247Z,1006.37
2016-04-28T10:33:33.234Z,1006.35
2016-04-28T10:34:33.205Z,1006.37
2016-04-28T10:35:33.177Z,1006.37
2016-04-28T10:36:33.164Z,1006.38
2016-04-28T10:37:33.136Z,1006.34
2016-04-28T10:38:33.108Z,1006.37
2016-04-28T10:39:33.093Z,1006.39
2016-04-28T10:40:33.065Z,1006.34
2016-04-28T10:41:33.037Z,1006.37
2016-04-28T10:42:35.493Z,1006.38
2016-04-28T10:43:32.995Z,1006.41
2016-04-28T10:44:32.982Z,1006.37
2016-04-28T10:45:32.954Z,1006.39
2016-04-28T10:46:32.926Z,1006.38
2016-04-28T10:47:32.897Z,1006.34
2016-04-28T10:48:32.884Z,1006.33
2016-04-28T10:49:32.856Z,1006.33
2016-04-28T10:50:32.827Z,1006.31
2016-04-28T10:51:32.814Z,1006.34
2016-04-28T10:52:32.785Z,1006.33
2016-04-28T10:53:32.756Z,1006.36
2016-04-28T10:54:32.744Z,1006.37
2016-04-28T10:55:32.715Z,1006.38
2016-04-28T10:56:32.687Z,1006.46
2016-04-28T10:57:34.314Z,1006.41
2016-04-28T10:58:32.645Z,1006.41
2016-04-28T10:59:32.617Z,1006.47
2016-04-28T11:00:32.588Z,1006.52
2016-04-28T11:01:32.575Z,1006.57
2016-04-28T11:02:32.547Z,1006.51
2016-04-28T11:03:32.519Z,1006.54
2016-04-28T11:04:32.505Z,1006.57
2016-04-28T11:05:32.477Z,1006.51
2016-04-28T11:06:32.447Z,1006.57
2016-04-28T11:07:32.435Z,1006.56
2016-04-28T11:08:32.407Z,1006.55
2016-04-28T11:09:32.393Z,1006.59
2016-04-28T11:10:32.365Z,1006.58
2016-04-28T11:11:32.352Z,1006.59
2016-04-28T11:12:32.324Z,1006.62
2016-04-28T11:13:32.295Z,1006.6
2016-04-28T11:14:32.266Z,1006.63
2016-04-28T11:15:32.254Z,1006.64
2016-04-28T11:16:32.224Z,1006.62
2016-04-28T11:17:32.212Z,1006.6
2016-04-28T11:18:32.184Z,1006.62
2016-04-28T11:19:32.170Z,1006.65
2016-04-28T11:20:32.142Z,1006.61
2016-04-28T11:21:32.247Z,1006.59
2016-04-28T11:22:32.095Z,1006.64
2016-04-28T11:23:32.082Z,1006.6
2016-04-28T11:24:32.053Z,1006.6
2016-04-28T11:25:32.025Z,1006.62
2016-04-28T11:26:32.011Z,1006.63
2016-04-28T11:27:31.983Z,1006.58
2016-04-28T11:28:31.970Z,1006.64
2016-04-28T11:29:31.941Z,1006.64
2016-04-28T11:30:31.913Z,1006.63
2016-04-28T11:31:31.899Z,1006.6
2016-04-28T11:32:31.872Z,1006.63
2016-04-28T11:33:31.844Z,1006.63
2016-04-28T11:34:31.830Z,1006.63
2016-04-28T11:35:31.801Z,1006.62
2016-04-28T11:36:31.788Z,1006.73
2016-04-28T11:37:31.759Z,1006.65
2016-04-28T11:38:31.731Z,1006.68
2016-04-28T11:39:31.718Z,1006.52
2016-04-28T11:40:31.690Z,1006.53
2016-04-28T11:41:31.662Z,1006.52
2016-04-28T11:42:31.648Z,1006.49
2016-04-28T11:43:31.620Z,1006.47
2016-04-28T11:44:31.591Z,1006.5
2016-04-28T11:45:31.579Z,1006.57
2016-04-28T11:46:31.550Z,1006.55
2016-04-28T11:47:31.537Z,1006.57
2016-04-28T11:48:31.509Z,1006.58
2016-04-28T11:49:31.479Z,1006.56
2016-04-28T11:50:31.451Z,1006.6
2016-04-28T11:51:31.439Z,1006.61
2016-04-28T11:52:31.426Z,1006.57
2016-04-28T11:53:31.381Z,1006.57
2016-04-28T11:54:31.367Z,1006.57
2016-04-28T11:55:31.339Z,1006.54
2016-04-28T11:56:31.311Z,1006.52
2016-04-28T11:57:31.298Z,1006.57
2016-04-28T11:58:31.270Z,1006.57
2016-04-28T11:59:31.256Z,1006.55
2016-04-28T12:00:31.228Z,1006.59
2016-04-28T12:01:31.200Z,1006.58
2016-04-28T12:02:31.186Z,1006.57
2016-04-28T12:03:31.158Z,1006.59
2016-04-28T12:04:31.144Z,1006.58
2016-04-28T12:05:31.116Z,1006.58
2016-04-28T12:06:31.088Z,1006.61
2016-04-28T12:07:31.075Z,1006.64
2016-04-28T12:08:31.046Z,1006.64